< < Back
Terminal Aerodrome Forecast


Current Version              Previous Versions:   1  2  3  4  5  6  7  8  9  

Terminal Aerodrome Forecast

087
FTUS42 KGSP 280536
TAFGSP
TAF
KGSP 280536Z 2806/2906 14004KT P6SM SCT060
     FM281000 11003KT 6SM BR FEW250
     FM281400 12006KT P6SM FEW060 SCT250
     FM290000 11003KT P6SM SCT060 BKN200=

Latest METAR

157
SAUS70 KWBC 282200 RRL
MTRGSP
METAR KGSP 282153Z AUTO 17006KT 10SM FEW080 26/17 A3012 RMK AO2 SLP190
T02560172


USA.gov is the U.S. government's official web portal to all federal, state and local government web resources and services.